sensor_id;sensor_type;location;lat;lon;timestamp;P1;durP1;ratioP1;P2;durP2;ratioP2
70588;SDS011;58152;49.202;18.744;2023-03-04T00:01:46;38.38;;;19.67;;
70588;SDS011;58152;49.202;18.744;2023-03-04T00:04:14;38.78;;;20.83;;
70588;SDS011;58152;49.202;18.744;2023-03-04T00:06:40;36.63;;;18.70;;
70588;SDS011;58152;49.202;18.744;2023-03-04T00:09:06;37.75;;;19.63;;
70588;SDS011;58152;49.202;18.744;2023-03-04T00:11:31;40.45;;;19.88;;
70588;SDS011;58152;49.202;18.744;2023-03-04T00:13:57;44.53;;;25.55;;
70588;SDS011;58152;49.202;18.744;2023-03-04T00:16:23;53.67;;;26.48;;
70588;SDS011;58152;49.202;18.744;2023-03-04T00:18:53;47.15;;;23.25;;
70588;SDS011;58152;49.202;18.744;2023-03-04T00:21:19;46.60;;;24.63;;
70588;SDS011;58152;49.202;18.744;2023-03-04T00:23:45;41.88;;;21.98;;
70588;SDS011;58152;49.202;18.744;2023-03-04T00:26:11;41.22;;;21.30;;
70588;SDS011;58152;49.202;18.744;2023-03-04T00:28:37;41.33;;;20.73;;
70588;SDS011;58152;49.202;18.744;2023-03-04T00:31:04;40.05;;;19.88;;
70588;SDS011;58152;49.202;18.744;2023-03-04T00:33:33;40.80;;;21.83;;
70588;SDS011;58152;49.202;18.744;2023-03-04T00:35:58;40.67;;;21.17;;
70588;SDS011;58152;49.202;18.744;2023-03-04T00:38:24;40.33;;;21.20;;
70588;SDS011;58152;49.202;18.744;2023-03-04T00:40:50;39.95;;;20.95;;
70588;SDS011;58152;49.202;18.744;2023-03-04T00:43:16;43.97;;;22.65;;
70588;SDS011;58152;49.202;18.744;2023-03-04T00:45:41;44.88;;;22.63;;
70588;SDS011;58152;49.202;18.744;2023-03-04T00:48:07;47.80;;;24.65;;
70588;SDS011;58152;49.202;18.744;2023-03-04T00:50:32;41.85;;;22.17;;
70588;SDS011;58152;49.202;18.744;2023-03-04T00:52:57;55.25;;;26.70;;
70588;SDS011;58152;49.202;18.744;2023-03-04T00:55:23;49.03;;;24.38;;
70588;SDS011;58152;49.202;18.744;2023-03-04T00:57:48;44.40;;;21.88;;
70588;SDS011;58152;49.202;18.744;2023-03-04T01:00:14;42.65;;;22.85;;
70588;SDS011;58152;49.202;18.744;2023-03-04T01:02:40;41.00;;;19.50;;
70588;SDS011;58152;49.202;18.744;2023-03-04T01:05:05;43.55;;;21.33;;
70588;SDS011;58152;49.202;18.744;2023-03-04T01:07:31;40.83;;;22.00;;
70588;SDS011;58152;49.202;18.744;2023-03-04T01:09:56;39.20;;;21.25;;
70588;SDS011;58152;49.202;18.744;2023-03-04T01:12:22;41.25;;;22.50;;
70588;SDS011;58152;49.202;18.744;2023-03-04T01:14:48;40.90;;;21.67;;
70588;SDS011;58152;49.202;18.744;2023-03-04T01:17:13;43.38;;;22.90;;
70588;SDS011;58152;49.202;18.744;2023-03-04T01:19:39;40.80;;;21.05;;
70588;SDS011;58152;49.202;18.744;2023-03-04T01:22:04;37.92;;;20.77;;
70588;SDS011;58152;49.202;18.744;2023-03-04T01:24:29;39.58;;;20.20;;
70588;SDS011;58152;49.202;18.744;2023-03-04T01:26:55;41.15;;;21.63;;
70588;SDS011;58152;49.202;18.744;2023-03-04T01:29:20;40.45;;;20.45;;
70588;SDS011;58152;49.202;18.744;2023-03-04T01:31:46;39.08;;;20.15;;
70588;SDS011;58152;49.202;18.744;2023-03-04T01:34:11;38.50;;;20.35;;
70588;SDS011;58152;49.202;18.744;2023-03-04T01:36:37;38.63;;;20.63;;
70588;SDS011;58152;49.202;18.744;2023-03-04T01:39:03;37.92;;;21.33;;
70588;SDS011;58152;49.202;18.744;2023-03-04T01:41:28;44.95;;;21.83;;
70588;SDS011;58152;49.202;18.744;2023-03-04T01:43:55;41.45;;;21.27;;
70588;SDS011;58152;49.202;18.744;2023-03-04T01:46:24;45.97;;;22.50;;
70588;SDS011;58152;49.202;18.744;2023-03-04T01:48:50;44.75;;;21.15;;
70588;SDS011;58152;49.202;18.744;2023-03-04T01:51:17;41.53;;;21.48;;
70588;SDS011;58152;49.202;18.744;2023-03-04T01:53:45;42.00;;;21.52;;
70588;SDS011;58152;49.202;18.744;2023-03-04T02:01:39;42.25;;;22.02;;
70588;SDS011;58152;49.202;18.744;2023-03-04T02:04:07;41.47;;;21.23;;
70588;SDS011;58152;49.202;18.744;2023-03-04T02:06:34;42.25;;;22.10;;
70588;SDS011;58152;49.202;18.744;2023-03-04T02:09:01;40.72;;;20.45;;
70588;SDS011;58152;49.202;18.744;2023-03-04T02:11:27;43.08;;;21.25;;
70588;SDS011;58152;49.202;18.744;2023-03-04T02:13:53;39.05;;;19.75;;
70588;SDS011;58152;49.202;18.744;2023-03-04T02:16:18;42.53;;;20.10;;
70588;SDS011;58152;49.202;18.744;2023-03-04T02:18:43;42.50;;;20.60;;
70588;SDS011;58152;49.202;18.744;2023-03-04T02:21:21;43.75;;;20.10;;
70588;SDS011;58152;49.202;18.744;2023-03-04T02:24:08;41.00;;;20.58;;
70588;SDS011;58152;49.202;18.744;2023-03-04T02:26:56;39.22;;;19.92;;
70588;SDS011;58152;49.202;18.744;2023-03-04T02:29:21;41.05;;;20.58;;
70588;SDS011;58152;49.202;18.744;2023-03-04T02:31:48;38.95;;;22.70;;
70588;SDS011;58152;49.202;18.744;2023-03-04T02:34:33;39.40;;;21.30;;
70588;SDS011;58152;49.202;18.744;2023-03-04T02:37:00;41.42;;;20.58;;
70588;SDS011;58152;49.202;18.744;2023-03-04T02:39:29;42.83;;;21.67;;
70588;SDS011;58152;49.202;18.744;2023-03-04T02:41:57;42.88;;;22.27;;
70588;SDS011;58152;49.202;18.744;2023-03-04T02:44:43;43.88;;;21.60;;
70588;SDS011;58152;49.202;18.744;2023-03-04T02:47:12;47.00;;;22.13;;
70588;SDS011;58152;49.202;18.744;2023-03-04T02:49:39;40.90;;;19.42;;
70588;SDS011;58152;49.202;18.744;2023-03-04T02:54:32;42.00;;;21.58;;
70588;SDS011;58152;49.202;18.744;2023-03-04T02:57:00;39.97;;;20.13;;
70588;SDS011;58152;49.202;18.744;2023-03-04T02:59:28;44.13;;;21.17;;
70588;SDS011;58152;49.202;18.744;2023-03-04T03:01:54;46.17;;;23.33;;
70588;SDS011;58152;49.202;18.744;2023-03-04T03:04:20;44.35;;;22.48;;
70588;SDS011;58152;49.202;18.744;2023-03-04T03:06:46;45.55;;;21.63;;
70588;SDS011;58152;49.202;18.744;2023-03-04T03:09:11;44.97;;;21.77;;
70588;SDS011;58152;49.202;18.744;2023-03-04T03:11:37;40.50;;;20.58;;
70588;SDS011;58152;49.202;18.744;2023-03-04T03:14:02;42.50;;;21.05;;
70588;SDS011;58152;49.202;18.744;2023-03-04T03:16:28;49.70;;;24.23;;
70588;SDS011;58152;49.202;18.744;2023-03-04T03:18:54;50.00;;;23.00;;
70588;SDS011;58152;49.202;18.744;2023-03-04T03:21:19;45.47;;;21.63;;
70588;SDS011;58152;49.202;18.744;2023-03-04T03:23:45;50.85;;;22.45;;
70588;SDS011;58152;49.202;18.744;2023-03-04T03:26:10;38.90;;;20.15;;
70588;SDS011;58152;49.202;18.744;2023-03-04T03:28:36;49.03;;;22.73;;
70588;SDS011;58152;49.202;18.744;2023-03-04T03:31:01;51.40;;;25.48;;
70588;SDS011;58152;49.202;18.744;2023-03-04T03:33:27;47.80;;;24.13;;
70588;SDS011;58152;49.202;18.744;2023-03-04T03:35:52;45.20;;;21.15;;
70588;SDS011;58152;49.202;18.744;2023-03-04T03:38:18;41.65;;;21.42;;
70588;SDS011;58152;49.202;18.744;2023-03-04T03:40:43;48.45;;;22.50;;
70588;SDS011;58152;49.202;18.744;2023-03-04T03:43:09;42.92;;;20.30;;
70588;SDS011;58152;49.202;18.744;2023-03-04T03:45:35;49.63;;;23.48;;
70588;SDS011;58152;49.202;18.744;2023-03-04T03:48:00;46.53;;;22.63;;
70588;SDS011;58152;49.202;18.744;2023-03-04T03:50:26;45.97;;;22.20;;
70588;SDS011;58152;49.202;18.744;2023-03-04T03:52:53;40.03;;;19.38;;
70588;SDS011;58152;49.202;18.744;2023-03-04T03:55:18;46.53;;;22.15;;
70588;SDS011;58152;49.202;18.744;2023-03-04T03:57:43;45.85;;;22.20;;
70588;SDS011;58152;49.202;18.744;2023-03-04T04:00:09;41.85;;;21.58;;
70588;SDS011;58152;49.202;18.744;2023-03-04T04:02:35;45.47;;;22.17;;
70588;SDS011;58152;49.202;18.744;2023-03-04T04:05:00;42.75;;;20.08;;
70588;SDS011;58152;49.202;18.744;2023-03-04T04:07:26;41.60;;;21.52;;
70588;SDS011;58152;49.202;18.744;2023-03-04T04:09:51;40.65;;;20.13;;
70588;SDS011;58152;49.202;18.744;2023-03-04T04:12:17;49.38;;;21.48;;
70588;SDS011;58152;49.202;18.744;2023-03-04T04:14:43;45.72;;;22.20;;
70588;SDS011;58152;49.202;18.744;2023-03-04T04:17:09;44.42;;;21.63;;
70588;SDS011;58152;49.202;18.744;2023-03-04T04:19:35;43.42;;;20.60;;
70588;SDS011;58152;49.202;18.744;2023-03-04T04:22:01;41.40;;;20.38;;
70588;SDS011;58152;49.202;18.744;2023-03-04T04:24:28;40.97;;;21.15;;
70588;SDS011;58152;49.202;18.744;2023-03-04T04:26:53;45.00;;;21.67;;
70588;SDS011;58152;49.202;18.744;2023-03-04T04:29:19;43.15;;;21.88;;
70588;SDS011;58152;49.202;18.744;2023-03-04T04:31:45;44.63;;;21.50;;
70588;SDS011;58152;49.202;18.744;2023-03-04T04:34:10;44.03;;;21.35;;
70588;SDS011;58152;49.202;18.744;2023-03-04T04:36:36;46.38;;;22.83;;
70588;SDS011;58152;49.202;18.744;2023-03-04T04:39:01;48.90;;;21.95;;
70588;SDS011;58152;49.202;18.744;2023-03-04T04:41:28;46.25;;;22.73;;
70588;SDS011;58152;49.202;18.744;2023-03-04T04:43:58;41.95;;;21.10;;
70588;SDS011;58152;49.202;18.744;2023-03-04T04:46:24;42.70;;;21.42;;
70588;SDS011;58152;49.202;18.744;2023-03-04T04:48:50;43.17;;;23.05;;
70588;SDS011;58152;49.202;18.744;2023-03-04T04:51:15;37.88;;;20.38;;
70588;SDS011;58152;49.202;18.744;2023-03-04T04:53:41;45.15;;;21.20;;
70588;SDS011;58152;49.202;18.744;2023-03-04T04:56:07;43.85;;;22.02;;
70588;SDS011;58152;49.202;18.744;2023-03-04T04:58:37;46.55;;;21.45;;
70588;SDS011;58152;49.202;18.744;2023-03-04T05:01:03;46.13;;;23.25;;
70588;SDS011;58152;49.202;18.744;2023-03-04T05:03:29;46.80;;;22.67;;
70588;SDS011;58152;49.202;18.744;2023-03-04T05:05:55;45.08;;;23.25;;
70588;SDS011;58152;49.202;18.744;2023-03-04T05:08:21;53.42;;;24.45;;
70588;SDS011;58152;49.202;18.744;2023-03-04T05:10:46;43.30;;;21.10;;
70588;SDS011;58152;49.202;18.744;2023-03-04T05:13:12;43.40;;;21.83;;
70588;SDS011;58152;49.202;18.744;2023-03-04T05:15:37;50.30;;;23.00;;
70588;SDS011;58152;49.202;18.744;2023-03-04T05:18:03;43.95;;;21.35;;
70588;SDS011;58152;49.202;18.744;2023-03-04T05:20:28;48.38;;;22.85;;
70588;SDS011;58152;49.202;18.744;2023-03-04T05:22:54;47.20;;;23.00;;
70588;SDS011;58152;49.202;18.744;2023-03-04T05:25:20;45.28;;;22.88;;
70588;SDS011;58152;49.202;18.744;2023-03-04T05:27:45;47.38;;;22.35;;
70588;SDS011;58152;49.202;18.744;2023-03-04T05:30:11;45.22;;;22.25;;
70588;SDS011;58152;49.202;18.744;2023-03-04T05:32:36;50.35;;;22.13;;
70588;SDS011;58152;49.202;18.744;2023-03-04T05:35:02;46.13;;;21.27;;
70588;SDS011;58152;49.202;18.744;2023-03-04T05:37:28;45.20;;;21.73;;
70588;SDS011;58152;49.202;18.744;2023-03-04T05:39:53;46.08;;;20.98;;
70588;SDS011;58152;49.202;18.744;2023-03-04T05:42:18;44.30;;;20.83;;
70588;SDS011;58152;49.202;18.744;2023-03-04T05:44:44;42.35;;;20.75;;
70588;SDS011;58152;49.202;18.744;2023-03-04T05:47:09;47.53;;;22.75;;
70588;SDS011;58152;49.202;18.744;2023-03-04T05:49:35;42.78;;;20.80;;
70588;SDS011;58152;49.202;18.744;2023-03-04T05:52:00;45.38;;;20.67;;
70588;SDS011;58152;49.202;18.744;2023-03-04T05:54:26;44.35;;;21.05;;
70588;SDS011;58152;49.202;18.744;2023-03-04T05:56:51;43.85;;;21.20;;
70588;SDS011;58152;49.202;18.744;2023-03-04T05:59:17;46.85;;;22.42;;
70588;SDS011;58152;49.202;18.744;2023-03-04T06:01:44;45.95;;;21.83;;
70588;SDS011;58152;49.202;18.744;2023-03-04T06:04:11;44.70;;;20.85;;
70588;SDS011;58152;49.202;18.744;2023-03-04T06:06:36;44.88;;;22.20;;
70588;SDS011;58152;49.202;18.744;2023-03-04T06:09:02;44.95;;;22.38;;
70588;SDS011;58152;49.202;18.744;2023-03-04T06:11:28;38.75;;;19.10;;
70588;SDS011;58152;49.202;18.744;2023-03-04T06:13:53;40.75;;;20.45;;
70588;SDS011;58152;49.202;18.744;2023-03-04T06:16:19;40.78;;;19.92;;
70588;SDS011;58152;49.202;18.744;2023-03-04T06:18:44;47.50;;;22.20;;
70588;SDS011;58152;49.202;18.744;2023-03-04T06:21:10;47.72;;;21.52;;
70588;SDS011;58152;49.202;18.744;2023-03-04T06:23:35;46.78;;;21.92;;
70588;SDS011;58152;49.202;18.744;2023-03-04T06:26:01;49.72;;;22.50;;
70588;SDS011;58152;49.202;18.744;2023-03-04T06:28:26;45.72;;;22.88;;
70588;SDS011;58152;49.202;18.744;2023-03-04T06:30:53;44.72;;;21.75;;
70588;SDS011;58152;49.202;18.744;2023-03-04T06:33:20;43.92;;;21.63;;
70588;SDS011;58152;49.202;18.744;2023-03-04T06:35:45;44.67;;;22.05;;
70588;SDS011;58152;49.202;18.744;2023-03-04T06:38:11;44.78;;;21.48;;
70588;SDS011;58152;49.202;18.744;2023-03-04T06:40:36;41.65;;;18.98;;
70588;SDS011;58152;49.202;18.744;2023-03-04T06:43:02;44.25;;;21.00;;
70588;SDS011;58152;49.202;18.744;2023-03-04T06:45:28;49.90;;;22.48;;
70588;SDS011;58152;49.202;18.744;2023-03-04T06:47:53;43.42;;;21.58;;
70588;SDS011;58152;49.202;18.744;2023-03-04T06:50:22;45.40;;;21.52;;
70588;SDS011;58152;49.202;18.744;2023-03-04T06:52:47;42.40;;;20.35;;
70588;SDS011;58152;49.202;18.744;2023-03-04T06:55:13;45.70;;;21.25;;
70588;SDS011;58152;49.202;18.744;2023-03-04T06:57:38;48.33;;;22.70;;
70588;SDS011;58152;49.202;18.744;2023-03-04T07:00:05;48.92;;;21.20;;
70588;SDS011;58152;49.202;18.744;2023-03-04T07:02:31;50.25;;;22.17;;
70588;SDS011;58152;49.202;18.744;2023-03-04T07:04:57;52.72;;;24.15;;
70588;SDS011;58152;49.202;18.744;2023-03-04T07:07:22;47.22;;;22.85;;
70588;SDS011;58152;49.202;18.744;2023-03-04T07:09:50;47.33;;;23.15;;
70588;SDS011;58152;49.202;18.744;2023-03-04T07:12:15;53.72;;;23.63;;
70588;SDS011;58152;49.202;18.744;2023-03-04T07:14:41;48.42;;;21.45;;
70588;SDS011;58152;49.202;18.744;2023-03-04T07:17:06;44.38;;;21.13;;
70588;SDS011;58152;49.202;18.744;2023-03-04T07:19:32;46.22;;;20.80;;
70588;SDS011;58152;49.202;18.744;2023-03-04T07:21:58;45.08;;;20.08;;
70588;SDS011;58152;49.202;18.744;2023-03-04T07:24:23;46.60;;;21.05;;
70588;SDS011;58152;49.202;18.744;2023-03-04T07:26:49;50.95;;;25.55;;
70588;SDS011;58152;49.202;18.744;2023-03-04T07:29:14;52.05;;;25.08;;
70588;SDS011;58152;49.202;18.744;2023-03-04T07:31:40;49.25;;;23.73;;
70588;SDS011;58152;49.202;18.744;2023-03-04T07:34:06;46.80;;;22.67;;
70588;SDS011;58152;49.202;18.744;2023-03-04T07:36:34;51.03;;;22.50;;
70588;SDS011;58152;49.202;18.744;2023-03-04T07:39:01;47.70;;;24.40;;
70588;SDS011;58152;49.202;18.744;2023-03-04T07:41:26;44.63;;;21.90;;
70588;SDS011;58152;49.202;18.744;2023-03-04T07:43:55;43.58;;;20.15;;
70588;SDS011;58152;49.202;18.744;2023-03-04T07:46:21;47.38;;;21.40;;
70588;SDS011;58152;49.202;18.744;2023-03-04T07:48:46;48.70;;;23.63;;
70588;SDS011;58152;49.202;18.744;2023-03-04T07:51:13;50.92;;;22.55;;
70588;SDS011;58152;49.202;18.744;2023-03-04T07:53:42;54.80;;;24.67;;
70588;SDS011;58152;49.202;18.744;2023-03-04T07:56:13;51.33;;;23.77;;
70588;SDS011;58152;49.202;18.744;2023-03-04T07:58:41;50.25;;;24.38;;
70588;SDS011;58152;49.202;18.744;2023-03-04T08:01:07;48.47;;;22.83;;
70588;SDS011;58152;49.202;18.744;2023-03-04T08:03:34;52.10;;;23.63;;
70588;SDS011;58152;49.202;18.744;2023-03-04T08:06:02;42.38;;;20.05;;
70588;SDS011;58152;49.202;18.744;2023-03-04T08:08:29;48.55;;;20.92;;
70588;SDS011;58152;49.202;18.744;2023-03-04T08:10:54;44.80;;;21.75;;
70588;SDS011;58152;49.202;18.744;2023-03-04T08:13:20;45.85;;;21.35;;
70588;SDS011;58152;49.202;18.744;2023-03-04T08:15:46;46.40;;;21.15;;
70588;SDS011;58152;49.202;18.744;2023-03-04T08:18:11;44.47;;;20.13;;
70588;SDS011;58152;49.202;18.744;2023-03-04T08:20:36;51.72;;;22.85;;
70588;SDS011;58152;49.202;18.744;2023-03-04T08:23:07;55.00;;;24.00;;
70588;SDS011;58152;49.202;18.744;2023-03-04T08:25:32;48.95;;;24.10;;
70588;SDS011;58152;49.202;18.744;2023-03-04T08:27:58;47.38;;;22.00;;
70588;SDS011;58152;49.202;18.744;2023-03-04T08:30:23;52.78;;;25.13;;
70588;SDS011;58152;49.202;18.744;2023-03-04T08:32:48;51.13;;;23.65;;
70588;SDS011;58152;49.202;18.744;2023-03-04T08:35:14;55.72;;;26.85;;
70588;SDS011;58152;49.202;18.744;2023-03-04T08:37:40;51.83;;;24.88;;
70588;SDS011;58152;49.202;18.744;2023-03-04T08:40:05;55.92;;;28.02;;
70588;SDS011;58152;49.202;18.744;2023-03-04T08:42:31;68.60;;;30.13;;
70588;SDS011;58152;49.202;18.744;2023-03-04T08:44:56;55.15;;;26.20;;
70588;SDS011;58152;49.202;18.744;2023-03-04T08:47:22;58.90;;;26.90;;
70588;SDS011;58152;49.202;18.744;2023-03-04T08:49:47;55.10;;;26.00;;
70588;SDS011;58152;49.202;18.744;2023-03-04T08:52:13;58.83;;;29.05;;
70588;SDS011;58152;49.202;18.744;2023-03-04T08:54:38;50.15;;;24.42;;
70588;SDS011;58152;49.202;18.744;2023-03-04T08:57:03;59.78;;;27.05;;
70588;SDS011;58152;49.202;18.744;2023-03-04T08:59:31;50.95;;;26.48;;
70588;SDS011;58152;49.202;18.744;2023-03-04T09:01:57;54.40;;;27.80;;
70588;SDS011;58152;49.202;18.744;2023-03-04T09:04:22;49.85;;;26.08;;
70588;SDS011;58152;49.202;18.744;2023-03-04T09:06:48;50.03;;;22.75;;
70588;SDS011;58152;49.202;18.744;2023-03-04T09:09:14;51.72;;;26.00;;
70588;SDS011;58152;49.202;18.744;2023-03-04T09:11:39;55.03;;;27.83;;
70588;SDS011;58152;49.202;18.744;2023-03-04T09:14:05;55.60;;;27.85;;
70588;SDS011;58152;49.202;18.744;2023-03-04T09:16:30;58.42;;;30.00;;
70588;SDS011;58152;49.202;18.744;2023-03-04T09:18:56;53.17;;;25.35;;
70588;SDS011;58152;49.202;18.744;2023-03-04T09:21:21;49.15;;;23.50;;
70588;SDS011;58152;49.202;18.744;2023-03-04T09:23:50;52.45;;;25.20;;
70588;SDS011;58152;49.202;18.744;2023-03-04T09:26:17;56.70;;;26.88;;
70588;SDS011;58152;49.202;18.744;2023-03-04T09:28:46;50.15;;;25.25;;
70588;SDS011;58152;49.202;18.744;2023-03-04T09:31:14;49.00;;;25.08;;
70588;SDS011;58152;49.202;18.744;2023-03-04T09:33:39;47.20;;;24.17;;
70588;SDS011;58152;49.202;18.744;2023-03-04T09:36:07;44.85;;;22.40;;
70588;SDS011;58152;49.202;18.744;2023-03-04T09:38:34;47.15;;;23.15;;
70588;SDS011;58152;49.202;18.744;2023-03-04T09:40:59;49.17;;;23.83;;
70588;SDS011;58152;49.202;18.744;2023-03-04T09:43:31;44.50;;;22.02;;
70588;SDS011;58152;49.202;18.744;2023-03-04T09:45:58;40.42;;;21.52;;
70588;SDS011;58152;49.202;18.744;2023-03-04T09:48:28;44.60;;;22.10;;
70588;SDS011;58152;49.202;18.744;2023-03-04T09:56:32;42.70;;;22.77;;
70588;SDS011;58152;49.202;18.744;2023-03-04T10:01:35;43.22;;;22.58;;
70588;SDS011;58152;49.202;18.744;2023-03-04T10:05:06;39.60;;;21.20;;
70588;SDS011;58152;49.202;18.744;2023-03-04T10:07:29;41.72;;;22.13;;
70588;SDS011;58152;49.202;18.744;2023-03-04T10:10:02;37.58;;;20.83;;
70588;SDS011;58152;49.202;18.744;2023-03-04T10:12:32;43.25;;;23.23;;
70588;SDS011;58152;49.202;18.744;2023-03-04T10:15:04;44.65;;;22.80;;
70588;SDS011;58152;49.202;18.744;2023-03-04T10:17:42;37.75;;;21.02;;
70588;SDS011;58152;49.202;18.744;2023-03-04T10:20:23;38.30;;;21.60;;
70588;SDS011;58152;49.202;18.744;2023-03-04T10:22:59;34.60;;;19.88;;
70588;SDS011;58152;49.202;18.744;2023-03-04T10:25:33;39.65;;;21.73;;
70588;SDS011;58152;49.202;18.744;2023-03-04T10:28:03;42.22;;;23.65;;
70588;SDS011;58152;49.202;18.744;2023-03-04T10:33:26;37.72;;;21.63;;
70588;SDS011;58152;49.202;18.744;2023-03-04T10:38:27;40.17;;;22.35;;
70588;SDS011;58152;49.202;18.744;2023-03-04T10:40:55;37.95;;;21.58;;
70588;SDS011;58152;49.202;18.744;2023-03-04T10:43:26;41.35;;;22.55;;
70588;SDS011;58152;49.202;18.744;2023-03-04T10:45:58;38.03;;;22.48;;
70588;SDS011;58152;49.202;18.744;2023-03-04T10:48:26;38.70;;;22.45;;
70588;SDS011;58152;49.202;18.744;2023-03-04T10:50:53;36.72;;;22.17;;
70588;SDS011;58152;49.202;18.744;2023-03-04T10:53:45;32.75;;;20.25;;
70588;SDS011;58152;49.202;18.744;2023-03-04T10:59:58;30.70;;;18.25;;
70588;SDS011;58152;49.202;18.744;2023-03-04T11:01:55;27.42;;;17.38;;
70588;SDS011;58152;49.202;18.744;2023-03-04T11:04:22;29.25;;;18.27;;
70588;SDS011;58152;49.202;18.744;2023-03-04T11:06:52;30.42;;;18.23;;
70588;SDS011;58152;49.202;18.744;2023-03-04T11:09:25;27.75;;;18.05;;
70588;SDS011;58152;49.202;18.744;2023-03-04T11:11:59;29.40;;;17.75;;
70588;SDS011;58152;49.202;18.744;2023-03-04T11:14:33;30.52;;;19.60;;
70588;SDS011;58152;49.202;18.744;2023-03-04T11:17:02;27.55;;;18.00;;
70588;SDS011;58152;49.202;18.744;2023-03-04T11:19:43;27.02;;;18.75;;
70588;SDS011;58152;49.202;18.744;2023-03-04T11:22:13;27.25;;;17.48;;
70588;SDS011;58152;49.202;18.744;2023-03-04T11:24:41;27.35;;;18.20;;
70588;SDS011;58152;49.202;18.744;2023-03-04T11:27:15;27.23;;;17.17;;
70588;SDS011;58152;49.202;18.744;2023-03-04T11:32:25;23.98;;;16.63;;
70588;SDS011;58152;49.202;18.744;2023-03-04T11:34:55;26.30;;;17.48;;
70588;SDS011;58152;49.202;18.744;2023-03-04T11:40:14;26.45;;;17.45;;
70588;SDS011;58152;49.202;18.744;2023-03-04T11:53:39;25.08;;;16.52;;
70588;SDS011;58152;49.202;18.744;2023-03-04T12:02:20;26.90;;;18.27;;
70588;SDS011;58152;49.202;18.744;2023-03-04T12:04:57;24.90;;;16.80;;
70588;SDS011;58152;49.202;18.744;2023-03-04T12:07:51;27.27;;;18.67;;
70588;SDS011;58152;49.202;18.744;2023-03-04T12:24:23;28.48;;;18.55;;
70588;SDS011;58152;49.202;18.744;2023-03-04T12:29:48;23.35;;;15.88;;
70588;SDS011;58152;49.202;18.744;2023-03-04T12:40:54;26.13;;;16.90;;
70588;SDS011;58152;49.202;18.744;2023-03-04T12:43:48;27.80;;;17.55;;
70588;SDS011;58152;49.202;18.744;2023-03-04T12:46:41;25.00;;;17.90;;
70588;SDS011;58152;49.202;18.744;2023-03-04T12:52:47;25.85;;;17.60;;
70588;SDS011;58152;49.202;18.744;2023-03-04T12:55:39;21.98;;;15.32;;
70588;SDS011;58152;49.202;18.744;2023-03-04T12:58:13;23.77;;;16.27;;
70588;SDS011;58152;49.202;18.744;2023-03-04T13:00:45;24.95;;;17.45;;
70588;SDS011;58152;49.202;18.744;2023-03-04T13:16:49;25.95;;;19.50;;
70588;SDS011;58152;49.202;18.744;2023-03-04T13:24:55;25.88;;;17.88;;
70588;SDS011;58152;49.202;18.744;2023-03-04T13:30:38;25.55;;;19.38;;
70588;SDS011;58152;49.202;18.744;2023-03-04T13:38:31;27.27;;;19.52;;
70588;SDS011;58152;49.202;18.744;2023-03-04T13:48:44;30.42;;;20.13;;
70588;SDS011;58152;49.202;18.744;2023-03-04T13:51:25;28.27;;;18.60;;
70588;SDS011;58152;49.202;18.744;2023-03-04T14:04:22;22.42;;;15.38;;
70588;SDS011;58152;49.202;18.744;2023-03-04T14:07:18;25.45;;;15.43;;
70588;SDS011;58152;49.202;18.744;2023-03-04T14:09:55;23.33;;;15.80;;
70588;SDS011;58152;49.202;18.744;2023-03-04T14:12:20;23.35;;;15.52;;
70588;SDS011;58152;49.202;18.744;2023-03-04T14:14:47;23.58;;;16.27;;
70588;SDS011;58152;49.202;18.744;2023-03-04T14:19:57;21.95;;;14.70;;
70588;SDS011;58152;49.202;18.744;2023-03-04T14:25:25;21.75;;;15.38;;
70588;SDS011;58152;49.202;18.744;2023-03-04T14:30:51;23.45;;;14.93;;
70588;SDS011;58152;49.202;18.744;2023-03-04T14:33:20;17.27;;;12.45;;
70588;SDS011;58152;49.202;18.744;2023-03-04T14:35:53;21.90;;;12.70;;
70588;SDS011;58152;49.202;18.744;2023-03-04T14:43:29;19.08;;;11.85;;
70588;SDS011;58152;49.202;18.744;2023-03-04T14:46:12;19.58;;;12.50;;
70588;SDS011;58152;49.202;18.744;2023-03-04T14:48:50;16.55;;;10.85;;
70588;SDS011;58152;49.202;18.744;2023-03-04T14:51:30;18.00;;;12.80;;
70588;SDS011;58152;49.202;18.744;2023-03-04T14:54:01;18.33;;;11.32;;
70588;SDS011;58152;49.202;18.744;2023-03-04T14:56:28;17.15;;;12.65;;
70588;SDS011;58152;49.202;18.744;2023-03-04T14:59:02;18.98;;;12.18;;
70588;SDS011;58152;49.202;18.744;2023-03-04T15:01:37;17.13;;;11.95;;
70588;SDS011;58152;49.202;18.744;2023-03-04T15:04:04;18.23;;;12.40;;
70588;SDS011;58152;49.202;18.744;2023-03-04T15:06:33;16.58;;;11.15;;
70588;SDS011;58152;49.202;18.744;2023-03-04T15:09:03;18.20;;;11.88;;
70588;SDS011;58152;49.202;18.744;2023-03-04T15:11:54;16.23;;;10.45;;
70588;SDS011;58152;49.202;18.744;2023-03-04T15:22:56;17.75;;;11.77;;
70588;SDS011;58152;49.202;18.744;2023-03-04T15:25:19;17.60;;;11.52;;
70588;SDS011;58152;49.202;18.744;2023-03-04T15:27:46;18.25;;;11.90;;
70588;SDS011;58152;49.202;18.744;2023-03-04T15:30:14;16.73;;;11.48;;
70588;SDS011;58152;49.202;18.744;2023-03-04T15:32:41;15.48;;;11.32;;
70588;SDS011;58152;49.202;18.744;2023-03-04T15:35:15;16.63;;;9.95;;
70588;SDS011;58152;49.202;18.744;2023-03-04T15:37:42;15.40;;;11.27;;
70588;SDS011;58152;49.202;18.744;2023-03-04T15:40:14;14.10;;;10.00;;
70588;SDS011;58152;49.202;18.744;2023-03-04T15:43:00;14.43;;;10.68;;
70588;SDS011;58152;49.202;18.744;2023-03-04T15:45:35;15.45;;;10.82;;
70588;SDS011;58152;49.202;18.744;2023-03-04T15:48:02;14.00;;;9.90;;
70588;SDS011;58152;49.202;18.744;2023-03-04T15:50:44;134.95;;;83.50;;
70588;SDS011;58152;49.202;18.744;2023-03-04T15:53:26;109.20;;;67.50;;
70588;SDS011;58152;49.202;18.744;2023-03-04T15:55:56;38.45;;;25.77;;
70588;SDS011;58152;49.202;18.744;2023-03-04T15:58:23;27.58;;;17.20;;
70588;SDS011;58152;49.202;18.744;2023-03-04T16:00:49;19.73;;;13.15;;
70588;SDS011;58152;49.202;18.744;2023-03-04T16:03:18;16.90;;;11.02;;
70588;SDS011;58152;49.202;18.744;2023-03-04T16:05:45;13.70;;;9.93;;
70588;SDS011;58152;49.202;18.744;2023-03-04T16:08:14;16.02;;;10.00;;
70588;SDS011;58152;49.202;18.744;2023-03-04T16:10:45;16.25;;;10.55;;
70588;SDS011;58152;49.202;18.744;2023-03-04T16:13:16;16.38;;;10.35;;
70588;SDS011;58152;49.202;18.744;2023-03-04T16:15:44;15.50;;;10.10;;
70588;SDS011;58152;49.202;18.744;2023-03-04T16:18:11;15.98;;;10.50;;
70588;SDS011;58152;49.202;18.744;2023-03-04T16:20:41;13.82;;;9.50;;
70588;SDS011;58152;49.202;18.744;2023-03-04T16:23:11;14.60;;;10.73;;
70588;SDS011;58152;49.202;18.744;2023-03-04T16:25:41;14.13;;;10.25;;
70588;SDS011;58152;49.202;18.744;2023-03-04T16:28:08;15.77;;;9.95;;
70588;SDS011;58152;49.202;18.744;2023-03-04T16:30:36;13.88;;;9.80;;
70588;SDS011;58152;49.202;18.744;2023-03-04T16:33:01;15.50;;;10.23;;
70588;SDS011;58152;49.202;18.744;2023-03-04T16:35:30;15.43;;;10.40;;
70588;SDS011;58152;49.202;18.744;2023-03-04T16:41:02;14.50;;;9.82;;
70588;SDS011;58152;49.202;18.744;2023-03-04T16:43:27;14.50;;;10.02;;